sensor_id;sensor_type;location;lat;lon;timestamp;P1;durP1;ratioP1;P2;durP2;ratioP2
15356;SDS011;7778;48.792;9.260;2022-09-03T00:02:43;3.13;;;1.65;;
15356;SDS011;7778;48.792;9.260;2022-09-03T00:05:34;2.72;;;2.00;;
15356;SDS011;7778;48.792;9.260;2022-09-03T00:08:26;2.65;;;2.05;;
15356;SDS011;7778;48.792;9.260;2022-09-03T00:11:18;2.65;;;2.17;;
15356;SDS011;7778;48.792;9.260;2022-09-03T00:14:08;2.85;;;2.30;;
15356;SDS011;7778;48.792;9.260;2022-09-03T00:16:59;1.90;;;1.80;;
15356;SDS011;7778;48.792;9.260;2022-09-03T00:19:52;2.53;;;2.13;;
15356;SDS011;7778;48.792;9.260;2022-09-03T00:22:43;3.20;;;2.10;;
15356;SDS011;7778;48.792;9.260;2022-09-03T00:25:35;3.13;;;1.73;;
15356;SDS011;7778;48.792;9.260;2022-09-03T00:28:25;1.85;;;1.55;;
15356;SDS011;7778;48.792;9.260;2022-09-03T00:31:19;3.30;;;1.50;;
15356;SDS011;7778;48.792;9.260;2022-09-03T00:34:12;2.65;;;1.42;;
15356;SDS011;7778;48.792;9.260;2022-09-03T00:37:06;2.97;;;1.60;;
15356;SDS011;7778;48.792;9.260;2022-09-03T00:39:53;1.10;;;1.02;;
15356;SDS011;7778;48.792;9.260;2022-09-03T00:42:41;1.45;;;1.35;;
15356;SDS011;7778;48.792;9.260;2022-09-03T00:45:38;2.13;;;1.60;;
15356;SDS011;7778;48.792;9.260;2022-09-03T00:48:39;1.30;;;1.20;;
15356;SDS011;7778;48.792;9.260;2022-09-03T00:51:42;1.35;;;1.10;;
15356;SDS011;7778;48.792;9.260;2022-09-03T00:54:38;1.40;;;1.25;;
15356;SDS011;7778;48.792;9.260;2022-09-03T00:57:34;1.60;;;1.25;;
15356;SDS011;7778;48.792;9.260;2022-09-03T01:00:29;1.30;;;1.20;;
15356;SDS011;7778;48.792;9.260;2022-09-03T01:03:16;1.73;;;1.30;;
15356;SDS011;7778;48.792;9.260;2022-09-03T01:06:12;2.00;;;1.30;;
15356;SDS011;7778;48.792;9.260;2022-09-03T01:09:11;2.70;;;1.52;;
15356;SDS011;7778;48.792;9.260;2022-09-03T01:12:16;4.97;;;1.65;;
15356;SDS011;7778;48.792;9.260;2022-09-03T01:15:14;5.32;;;2.13;;
15356;SDS011;7778;48.792;9.260;2022-09-03T01:18:10;1.70;;;1.45;;
15356;SDS011;7778;48.792;9.260;2022-09-03T01:21:17;1.98;;;1.48;;
15356;SDS011;7778;48.792;9.260;2022-09-03T01:24:33;3.80;;;1.95;;
15356;SDS011;7778;48.792;9.260;2022-09-03T01:27:47;1.80;;;1.45;;
15356;SDS011;7778;48.792;9.260;2022-09-03T01:31:05;2.75;;;1.48;;
15356;SDS011;7778;48.792;9.260;2022-09-03T01:34:06;2.60;;;1.42;;
15356;SDS011;7778;48.792;9.260;2022-09-03T01:37:05;3.38;;;1.77;;
15356;SDS011;7778;48.792;9.260;2022-09-03T01:40:01;4.15;;;1.77;;
15356;SDS011;7778;48.792;9.260;2022-09-03T01:43:00;1.70;;;1.60;;
15356;SDS011;7778;48.792;9.260;2022-09-03T01:46:04;3.05;;;1.27;;
15356;SDS011;7778;48.792;9.260;2022-09-03T01:48:59;3.47;;;1.33;;
15356;SDS011;7778;48.792;9.260;2022-09-03T01:51:52;7.30;;;2.08;;
15356;SDS011;7778;48.792;9.260;2022-09-03T01:54:50;5.28;;;1.52;;
15356;SDS011;7778;48.792;9.260;2022-09-03T01:57:50;1.50;;;1.40;;
15356;SDS011;7778;48.792;9.260;2022-09-03T02:00:41;4.47;;;1.50;;
15356;SDS011;7778;48.792;9.260;2022-09-03T02:03:37;2.30;;;1.27;;
15356;SDS011;7778;48.792;9.260;2022-09-03T02:06:27;2.83;;;1.35;;
15356;SDS011;7778;48.792;9.260;2022-09-03T02:09:16;1.35;;;1.25;;
15356;SDS011;7778;48.792;9.260;2022-09-03T02:12:03;1.38;;;1.05;;
15356;SDS011;7778;48.792;9.260;2022-09-03T02:14:56;1.17;;;1.10;;
15356;SDS011;7778;48.792;9.260;2022-09-03T02:17:43;1.90;;;1.13;;
15356;SDS011;7778;48.792;9.260;2022-09-03T02:20:33;2.35;;;1.20;;
15356;SDS011;7778;48.792;9.260;2022-09-03T02:23:21;1.70;;;1.33;;
15356;SDS011;7778;48.792;9.260;2022-09-03T02:26:11;1.40;;;1.27;;
15356;SDS011;7778;48.792;9.260;2022-09-03T02:29:01;1.88;;;1.33;;
15356;SDS011;7778;48.792;9.260;2022-09-03T02:31:48;0.95;;;0.95;;
15356;SDS011;7778;48.792;9.260;2022-09-03T02:34:34;4.15;;;1.20;;
15356;SDS011;7778;48.792;9.260;2022-09-03T02:37:21;3.03;;;1.10;;
15356;SDS011;7778;48.792;9.260;2022-09-03T02:40:07;2.15;;;1.27;;
15356;SDS011;7778;48.792;9.260;2022-09-03T02:42:54;2.42;;;1.15;;
15356;SDS011;7778;48.792;9.260;2022-09-03T02:45:41;3.40;;;1.38;;
15356;SDS011;7778;48.792;9.260;2022-09-03T02:48:30;2.40;;;1.70;;
15356;SDS011;7778;48.792;9.260;2022-09-03T02:51:16;2.88;;;1.50;;
15356;SDS011;7778;48.792;9.260;2022-09-03T02:54:03;2.08;;;1.33;;
15356;SDS011;7778;48.792;9.260;2022-09-03T02:56:50;4.07;;;1.65;;
15356;SDS011;7778;48.792;9.260;2022-09-03T02:59:36;2.85;;;1.77;;
15356;SDS011;7778;48.792;9.260;2022-09-03T03:02:22;3.05;;;1.75;;
15356;SDS011;7778;48.792;9.260;2022-09-03T03:05:08;2.08;;;1.58;;
15356;SDS011;7778;48.792;9.260;2022-09-03T03:07:59;1.50;;;1.40;;
15356;SDS011;7778;48.792;9.260;2022-09-03T03:10:47;4.78;;;1.55;;
15356;SDS011;7778;48.792;9.260;2022-09-03T03:13:34;1.65;;;1.50;;
15356;SDS011;7778;48.792;9.260;2022-09-03T03:16:20;2.53;;;1.35;;
15356;SDS011;7778;48.792;9.260;2022-09-03T03:19:06;2.03;;;1.58;;
15356;SDS011;7778;48.792;9.260;2022-09-03T03:21:51;1.73;;;1.48;;
15356;SDS011;7778;48.792;9.260;2022-09-03T03:24:37;2.95;;;1.42;;
15356;SDS011;7778;48.792;9.260;2022-09-03T03:27:24;2.22;;;1.50;;
15356;SDS011;7778;48.792;9.260;2022-09-03T03:30:11;1.45;;;1.35;;
15356;SDS011;7778;48.792;9.260;2022-09-03T03:32:57;2.63;;;1.80;;
15356;SDS011;7778;48.792;9.260;2022-09-03T03:35:43;2.80;;;1.40;;
15356;SDS011;7778;48.792;9.260;2022-09-03T03:38:29;3.28;;;1.60;;
15356;SDS011;7778;48.792;9.260;2022-09-03T03:41:15;2.22;;;1.60;;
15356;SDS011;7778;48.792;9.260;2022-09-03T03:44:06;4.35;;;1.65;;
15356;SDS011;7778;48.792;9.260;2022-09-03T03:46:52;2.85;;;1.20;;
15356;SDS011;7778;48.792;9.260;2022-09-03T03:49:38;1.83;;;1.52;;
15356;SDS011;7778;48.792;9.260;2022-09-03T03:52:24;1.15;;;1.05;;
15356;SDS011;7778;48.792;9.260;2022-09-03T03:55:11;2.45;;;1.55;;
15356;SDS011;7778;48.792;9.260;2022-09-03T03:57:57;2.22;;;1.25;;
15356;SDS011;7778;48.792;9.260;2022-09-03T04:00:44;1.35;;;1.20;;
15356;SDS011;7778;48.792;9.260;2022-09-03T04:03:32;1.60;;;1.50;;
15356;SDS011;7778;48.792;9.260;2022-09-03T04:06:18;4.00;;;1.60;;
15356;SDS011;7778;48.792;9.260;2022-09-03T04:09:04;2.20;;;1.50;;
15356;SDS011;7778;48.792;9.260;2022-09-03T04:11:50;1.55;;;1.45;;
15356;SDS011;7778;48.792;9.260;2022-09-03T04:14:35;2.13;;;1.55;;
15356;SDS011;7778;48.792;9.260;2022-09-03T04:17:22;6.65;;;1.45;;
15356;SDS011;7778;48.792;9.260;2022-09-03T04:20:08;3.17;;;1.45;;
15356;SDS011;7778;48.792;9.260;2022-09-03T04:22:54;1.73;;;1.55;;
15356;SDS011;7778;48.792;9.260;2022-09-03T04:25:50;1.88;;;1.48;;
15356;SDS011;7778;48.792;9.260;2022-09-03T04:28:36;4.13;;;1.58;;
15356;SDS011;7778;48.792;9.260;2022-09-03T04:31:23;2.90;;;1.60;;
15356;SDS011;7778;48.792;9.260;2022-09-03T04:34:10;1.75;;;1.50;;
15356;SDS011;7778;48.792;9.260;2022-09-03T04:36:56;1.65;;;1.35;;
15356;SDS011;7778;48.792;9.260;2022-09-03T04:39:41;2.50;;;1.60;;
15356;SDS011;7778;48.792;9.260;2022-09-03T04:42:27;2.67;;;1.45;;
15356;SDS011;7778;48.792;9.260;2022-09-03T04:45:13;1.77;;;1.67;;
15356;SDS011;7778;48.792;9.260;2022-09-03T04:48:01;1.58;;;1.42;;
15356;SDS011;7778;48.792;9.260;2022-09-03T04:50:50;2.05;;;1.83;;
15356;SDS011;7778;48.792;9.260;2022-09-03T04:53:36;2.03;;;1.80;;
15356;SDS011;7778;48.792;9.260;2022-09-03T04:56:24;2.47;;;1.77;;
15356;SDS011;7778;48.792;9.260;2022-09-03T04:59:12;2.25;;;1.58;;
15356;SDS011;7778;48.792;9.260;2022-09-03T05:01:57;4.45;;;1.38;;
15356;SDS011;7778;48.792;9.260;2022-09-03T05:04:43;2.60;;;1.30;;
15356;SDS011;7778;48.792;9.260;2022-09-03T05:07:31;2.35;;;1.65;;
15356;SDS011;7778;48.792;9.260;2022-09-03T05:10:20;2.22;;;1.50;;
15356;SDS011;7778;48.792;9.260;2022-09-03T05:13:06;2.15;;;1.50;;
15356;SDS011;7778;48.792;9.260;2022-09-03T05:15:52;3.33;;;1.77;;
15356;SDS011;7778;48.792;9.260;2022-09-03T05:18:43;1.83;;;1.65;;
15356;SDS011;7778;48.792;9.260;2022-09-03T05:21:30;2.00;;;1.67;;
15356;SDS011;7778;48.792;9.260;2022-09-03T05:24:17;3.00;;;1.80;;
15356;SDS011;7778;48.792;9.260;2022-09-03T05:27:03;1.50;;;1.40;;
15356;SDS011;7778;48.792;9.260;2022-09-03T05:29:48;2.80;;;1.83;;
15356;SDS011;7778;48.792;9.260;2022-09-03T05:32:34;1.48;;;1.38;;
15356;SDS011;7778;48.792;9.260;2022-09-03T05:35:19;2.33;;;1.50;;
15356;SDS011;7778;48.792;9.260;2022-09-03T05:38:05;1.85;;;1.40;;
15356;SDS011;7778;48.792;9.260;2022-09-03T05:40:52;3.60;;;1.40;;
15356;SDS011;7778;48.792;9.260;2022-09-03T05:43:39;1.50;;;1.40;;
15356;SDS011;7778;48.792;9.260;2022-09-03T05:46:26;3.05;;;1.77;;
15356;SDS011;7778;48.792;9.260;2022-09-03T05:49:16;3.00;;;1.80;;
15356;SDS011;7778;48.792;9.260;2022-09-03T05:52:01;1.63;;;1.35;;
15356;SDS011;7778;48.792;9.260;2022-09-03T05:54:47;2.10;;;1.45;;
15356;SDS011;7778;48.792;9.260;2022-09-03T05:57:34;1.75;;;1.65;;
15356;SDS011;7778;48.792;9.260;2022-09-03T06:00:20;3.35;;;1.67;;
15356;SDS011;7778;48.792;9.260;2022-09-03T06:03:06;1.70;;;1.42;;
15356;SDS011;7778;48.792;9.260;2022-09-03T06:05:52;2.45;;;1.92;;
15356;SDS011;7778;48.792;9.260;2022-09-03T06:08:38;2.15;;;1.63;;
15356;SDS011;7778;48.792;9.260;2022-09-03T06:11:27;2.10;;;1.77;;
15356;SDS011;7778;48.792;9.260;2022-09-03T06:14:16;3.55;;;1.67;;
15356;SDS011;7778;48.792;9.260;2022-09-03T06:17:01;2.40;;;1.80;;
15356;SDS011;7778;48.792;9.260;2022-09-03T06:19:47;1.70;;;1.60;;
15356;SDS011;7778;48.792;9.260;2022-09-03T06:22:33;2.42;;;1.55;;
15356;SDS011;7778;48.792;9.260;2022-09-03T06:25:18;1.90;;;1.70;;
15356;SDS011;7778;48.792;9.260;2022-09-03T06:28:04;2.95;;;1.60;;
15356;SDS011;7778;48.792;9.260;2022-09-03T06:30:53;2.58;;;1.80;;
15356;SDS011;7778;48.792;9.260;2022-09-03T06:33:42;2.55;;;1.90;;
15356;SDS011;7778;48.792;9.260;2022-09-03T06:36:29;2.55;;;1.90;;
15356;SDS011;7778;48.792;9.260;2022-09-03T06:39:16;4.38;;;1.75;;
15356;SDS011;7778;48.792;9.260;2022-09-03T06:42:01;3.03;;;1.98;;
15356;SDS011;7778;48.792;9.260;2022-09-03T06:44:47;3.47;;;1.90;;
15356;SDS011;7778;48.792;9.260;2022-09-03T06:47:35;1.60;;;1.50;;
15356;SDS011;7778;48.792;9.260;2022-09-03T06:50:21;2.30;;;1.70;;
15356;SDS011;7778;48.792;9.260;2022-09-03T06:53:07;4.80;;;1.98;;
15356;SDS011;7778;48.792;9.260;2022-09-03T06:55:54;2.53;;;1.90;;
15356;SDS011;7778;48.792;9.260;2022-09-03T06:58:41;4.47;;;2.10;;
15356;SDS011;7778;48.792;9.260;2022-09-03T07:01:30;2.92;;;1.90;;
15356;SDS011;7778;48.792;9.260;2022-09-03T07:04:18;2.20;;;1.95;;
15356;SDS011;7778;48.792;9.260;2022-09-03T07:07:07;2.05;;;1.70;;
15356;SDS011;7778;48.792;9.260;2022-09-03T07:09:56;1.70;;;1.60;;
15356;SDS011;7778;48.792;9.260;2022-09-03T07:12:41;2.88;;;2.00;;
15356;SDS011;7778;48.792;9.260;2022-09-03T07:15:27;4.20;;;2.05;;
15356;SDS011;7778;48.792;9.260;2022-09-03T07:18:13;2.17;;;1.65;;
15356;SDS011;7778;48.792;9.260;2022-09-03T07:21:00;2.30;;;2.10;;
15356;SDS011;7778;48.792;9.260;2022-09-03T07:23:48;1.55;;;1.40;;
15356;SDS011;7778;48.792;9.260;2022-09-03T07:26:36;2.15;;;1.80;;
15356;SDS011;7778;48.792;9.260;2022-09-03T07:29:27;2.13;;;1.92;;
15356;SDS011;7778;48.792;9.260;2022-09-03T07:32:12;3.22;;;1.67;;
15356;SDS011;7778;48.792;9.260;2022-09-03T07:34:58;3.20;;;1.90;;
15356;SDS011;7778;48.792;9.260;2022-09-03T07:37:45;3.83;;;1.95;;
15356;SDS011;7778;48.792;9.260;2022-09-03T07:40:30;2.85;;;2.15;;
15356;SDS011;7778;48.792;9.260;2022-09-03T07:43:16;2.83;;;2.10;;
15356;SDS011;7778;48.792;9.260;2022-09-03T07:46:02;2.45;;;2.10;;
15356;SDS011;7778;48.792;9.260;2022-09-03T07:48:49;4.07;;;1.80;;
15356;SDS011;7778;48.792;9.260;2022-09-03T07:51:37;3.10;;;2.10;;
15356;SDS011;7778;48.792;9.260;2022-09-03T07:54:24;1.52;;;1.42;;
15356;SDS011;7778;48.792;9.260;2022-09-03T07:57:10;2.40;;;1.88;;
15356;SDS011;7778;48.792;9.260;2022-09-03T07:59:56;3.13;;;1.95;;
15356;SDS011;7778;48.792;9.260;2022-09-03T08:02:42;2.75;;;2.00;;
15356;SDS011;7778;48.792;9.260;2022-09-03T08:05:27;2.90;;;1.67;;
15356;SDS011;7778;48.792;9.260;2022-09-03T08:08:13;2.75;;;1.88;;
15356;SDS011;7778;48.792;9.260;2022-09-03T08:11:06;4.32;;;1.88;;
15356;SDS011;7778;48.792;9.260;2022-09-03T08:13:54;3.90;;;2.50;;
15356;SDS011;7778;48.792;9.260;2022-09-03T08:16:44;2.38;;;2.17;;
15356;SDS011;7778;48.792;9.260;2022-09-03T08:19:31;2.58;;;2.20;;
15356;SDS011;7778;48.792;9.260;2022-09-03T08:22:16;2.35;;;1.92;;
15356;SDS011;7778;48.792;9.260;2022-09-03T08:25:03;2.00;;;1.83;;
15356;SDS011;7778;48.792;9.260;2022-09-03T08:27:52;2.15;;;1.85;;
15356;SDS011;7778;48.792;9.260;2022-09-03T08:30:37;1.98;;;1.77;;
15356;SDS011;7778;48.792;9.260;2022-09-03T08:33:23;4.78;;;2.15;;
15356;SDS011;7778;48.792;9.260;2022-09-03T08:36:20;2.72;;;2.15;;
15356;SDS011;7778;48.792;9.260;2022-09-03T08:39:09;3.17;;;2.20;;
15356;SDS011;7778;48.792;9.260;2022-09-03T08:42:05;2.40;;;1.92;;
15356;SDS011;7778;48.792;9.260;2022-09-03T08:45:08;2.50;;;2.08;;
15356;SDS011;7778;48.792;9.260;2022-09-03T08:48:01;2.30;;;2.10;;
15356;SDS011;7778;48.792;9.260;2022-09-03T08:50:50;2.75;;;2.05;;
15356;SDS011;7778;48.792;9.260;2022-09-03T08:53:43;2.05;;;1.90;;
15356;SDS011;7778;48.792;9.260;2022-09-03T08:56:32;2.92;;;1.95;;
15356;SDS011;7778;48.792;9.260;2022-09-03T08:59:24;2.70;;;2.20;;
15356;SDS011;7778;48.792;9.260;2022-09-03T09:02:15;4.65;;;2.28;;
15356;SDS011;7778;48.792;9.260;2022-09-03T09:05:11;4.90;;;2.50;;
15356;SDS011;7778;48.792;9.260;2022-09-03T09:08:02;2.75;;;2.03;;
15356;SDS011;7778;48.792;9.260;2022-09-03T09:10:57;3.05;;;1.98;;
15356;SDS011;7778;48.792;9.260;2022-09-03T09:13:52;2.60;;;2.30;;
15356;SDS011;7778;48.792;9.260;2022-09-03T09:16:45;3.00;;;2.15;;
15356;SDS011;7778;48.792;9.260;2022-09-03T09:19:44;4.70;;;2.30;;
15356;SDS011;7778;48.792;9.260;2022-09-03T09:22:44;4.47;;;2.65;;
15356;SDS011;7778;48.792;9.260;2022-09-03T09:25:33;2.72;;;2.47;;
15356;SDS011;7778;48.792;9.260;2022-09-03T09:28:32;2.33;;;2.13;;
15356;SDS011;7778;48.792;9.260;2022-09-03T09:31:21;2.33;;;1.88;;
15356;SDS011;7778;48.792;9.260;2022-09-03T09:34:07;4.32;;;3.03;;
15356;SDS011;7778;48.792;9.260;2022-09-03T09:36:55;2.45;;;2.03;;
15356;SDS011;7778;48.792;9.260;2022-09-03T09:39:51;4.65;;;2.47;;
15356;SDS011;7778;48.792;9.260;2022-09-03T09:42:40;2.45;;;2.10;;
15356;SDS011;7778;48.792;9.260;2022-09-03T09:45:26;4.63;;;2.35;;
15356;SDS011;7778;48.792;9.260;2022-09-03T09:48:15;3.78;;;2.13;;
15356;SDS011;7778;48.792;9.260;2022-09-03T09:51:10;2.50;;;2.00;;
15356;SDS011;7778;48.792;9.260;2022-09-03T09:54:02;2.65;;;2.15;;
15356;SDS011;7778;48.792;9.260;2022-09-03T09:57:00;2.33;;;2.13;;
15356;SDS011;7778;48.792;9.260;2022-09-03T10:00:04;3.30;;;2.08;;
15356;SDS011;7778;48.792;9.260;2022-09-03T10:02:53;2.20;;;2.00;;
15356;SDS011;7778;48.792;9.260;2022-09-03T10:05:39;3.47;;;2.17;;
15356;SDS011;7778;48.792;9.260;2022-09-03T10:08:26;3.50;;;2.83;;
15356;SDS011;7778;48.792;9.260;2022-09-03T10:11:13;2.95;;;2.40;;
15356;SDS011;7778;48.792;9.260;2022-09-03T10:14:02;2.03;;;1.90;;
15356;SDS011;7778;48.792;9.260;2022-09-03T10:16:53;3.25;;;2.60;;
15356;SDS011;7778;48.792;9.260;2022-09-03T10:19:49;4.90;;;2.28;;
15356;SDS011;7778;48.792;9.260;2022-09-03T10:23:02;2.60;;;2.35;;
15356;SDS011;7778;48.792;9.260;2022-09-03T10:25:57;2.15;;;1.95;;
15356;SDS011;7778;48.792;9.260;2022-09-03T10:28:51;3.00;;;2.35;;
15356;SDS011;7778;48.792;9.260;2022-09-03T10:31:50;4.57;;;2.38;;
15356;SDS011;7778;48.792;9.260;2022-09-03T10:34:54;2.40;;;2.20;;
15356;SDS011;7778;48.792;9.260;2022-09-03T10:37:53;4.90;;;1.83;;
15356;SDS011;7778;48.792;9.260;2022-09-03T10:40:50;2.13;;;1.92;;
15356;SDS011;7778;48.792;9.260;2022-09-03T10:43:58;2.97;;;2.15;;
15356;SDS011;7778;48.792;9.260;2022-09-03T10:47:27;2.22;;;1.80;;
15356;SDS011;7778;48.792;9.260;2022-09-03T10:50:25;6.10;;;2.58;;
15356;SDS011;7778;48.792;9.260;2022-09-03T10:53:23;3.63;;;2.50;;
15356;SDS011;7778;48.792;9.260;2022-09-03T10:56:24;3.47;;;2.20;;
15356;SDS011;7778;48.792;9.260;2022-09-03T10:59:31;3.85;;;2.80;;
15356;SDS011;7778;48.792;9.260;2022-09-03T11:06:05;2.42;;;2.13;;
15356;SDS011;7778;48.792;9.260;2022-09-03T11:08:57;2.83;;;2.55;;
15356;SDS011;7778;48.792;9.260;2022-09-03T11:11:58;2.97;;;2.55;;
15356;SDS011;7778;48.792;9.260;2022-09-03T11:14:51;4.22;;;2.50;;
15356;SDS011;7778;48.792;9.260;2022-09-03T11:17:45;3.95;;;2.88;;
15356;SDS011;7778;48.792;9.260;2022-09-03T11:20:34;2.97;;;2.10;;
15356;SDS011;7778;48.792;9.260;2022-09-03T11:23:20;3.65;;;2.38;;
15356;SDS011;7778;48.792;9.260;2022-09-03T11:26:10;3.33;;;2.58;;
15356;SDS011;7778;48.792;9.260;2022-09-03T11:29:00;3.13;;;2.80;;
15356;SDS011;7778;48.792;9.260;2022-09-03T11:31:57;3.38;;;2.53;;
15356;SDS011;7778;48.792;9.260;2022-09-03T11:34:52;2.95;;;2.50;;
15356;SDS011;7778;48.792;9.260;2022-09-03T11:37:44;5.78;;;2.30;;
15356;SDS011;7778;48.792;9.260;2022-09-03T11:40:38;2.72;;;2.20;;
15356;SDS011;7778;48.792;9.260;2022-09-03T11:43:39;2.95;;;2.65;;
15356;SDS011;7778;48.792;9.260;2022-09-03T11:46:27;7.40;;;2.95;;
15356;SDS011;7778;48.792;9.260;2022-09-03T11:49:23;4.32;;;2.55;;
15356;SDS011;7778;48.792;9.260;2022-09-03T11:52:13;3.70;;;3.08;;
15356;SDS011;7778;48.792;9.260;2022-09-03T11:55:10;3.30;;;2.40;;
15356;SDS011;7778;48.792;9.260;2022-09-03T11:57:56;3.83;;;2.72;;
15356;SDS011;7778;48.792;9.260;2022-09-03T12:00:42;4.22;;;2.45;;
15356;SDS011;7778;48.792;9.260;2022-09-03T12:03:33;3.15;;;2.38;;
15356;SDS011;7778;48.792;9.260;2022-09-03T12:06:41;3.25;;;2.47;;
15356;SDS011;7778;48.792;9.260;2022-09-03T12:09:46;3.08;;;2.15;;
15356;SDS011;7778;48.792;9.260;2022-09-03T12:12:49;3.15;;;2.53;;
15356;SDS011;7778;48.792;9.260;2022-09-03T12:15:59;7.22;;;2.60;;
15356;SDS011;7778;48.792;9.260;2022-09-03T12:19:03;2.80;;;2.45;;
15356;SDS011;7778;48.792;9.260;2022-09-03T12:21:58;3.25;;;2.40;;
15356;SDS011;7778;48.792;9.260;2022-09-03T12:24:46;3.05;;;2.30;;
15356;SDS011;7778;48.792;9.260;2022-09-03T12:27:33;3.03;;;2.55;;
15356;SDS011;7778;48.792;9.260;2022-09-03T12:30:21;4.40;;;2.70;;
15356;SDS011;7778;48.792;9.260;2022-09-03T12:33:08;5.18;;;3.17;;
15356;SDS011;7778;48.792;9.260;2022-09-03T12:36:01;5.10;;;2.50;;
15356;SDS011;7778;48.792;9.260;2022-09-03T12:38:48;3.50;;;2.20;;
15356;SDS011;7778;48.792;9.260;2022-09-03T12:41:35;3.20;;;1.77;;
15356;SDS011;7778;48.792;9.260;2022-09-03T12:44:26;1.50;;;1.23;;
15356;SDS011;7778;48.792;9.260;2022-09-03T12:47:15;2.15;;;1.40;;
15356;SDS011;7778;48.792;9.260;2022-09-03T12:50:04;1.10;;;1.00;;
15356;SDS011;7778;48.792;9.260;2022-09-03T12:52:52;1.52;;;0.77;;
15356;SDS011;7778;48.792;9.260;2022-09-03T12:55:43;2.08;;;1.10;;
15356;SDS011;7778;48.792;9.260;2022-09-03T12:58:33;2.35;;;1.33;;
15356;SDS011;7778;48.792;9.260;2022-09-03T13:01:23;1.33;;;0.90;;
15356;SDS011;7778;48.792;9.260;2022-09-03T13:04:15;1.27;;;1.05;;
15356;SDS011;7778;48.792;9.260;2022-09-03T13:07:04;2.00;;;1.20;;
15356;SDS011;7778;48.792;9.260;2022-09-03T13:09:59;1.83;;;1.10;;
15356;SDS011;7778;48.792;9.260;2022-09-03T13:12:51;1.65;;;1.50;;
15356;SDS011;7778;48.792;9.260;2022-09-03T13:15:52;2.55;;;1.30;;
15356;SDS011;7778;48.792;9.260;2022-09-03T13:18:59;2.13;;;1.13;;
15356;SDS011;7778;48.792;9.260;2022-09-03T13:21:54;2.97;;;1.50;;
15356;SDS011;7778;48.792;9.260;2022-09-03T13:24:58;1.33;;;1.23;;
15356;SDS011;7778;48.792;9.260;2022-09-03T13:28:04;1.55;;;1.00;;
15356;SDS011;7778;48.792;9.260;2022-09-03T13:31:17;1.85;;;1.38;;
15356;SDS011;7778;48.792;9.260;2022-09-03T13:34:14;2.72;;;0.95;;
15356;SDS011;7778;48.792;9.260;2022-09-03T13:37:09;2.83;;;1.45;;
15356;SDS011;7778;48.792;9.260;2022-09-03T13:40:11;1.50;;;0.85;;
15356;SDS011;7778;48.792;9.260;2022-09-03T13:43:04;1.30;;;1.20;;
15356;SDS011;7778;48.792;9.260;2022-09-03T13:46:05;2.55;;;1.40;;
15356;SDS011;7778;48.792;9.260;2022-09-03T13:48:55;3.55;;;1.23;;
15356;SDS011;7778;48.792;9.260;2022-09-03T13:52:12;2.88;;;1.35;;
15356;SDS011;7778;48.792;9.260;2022-09-03T13:55:07;2.03;;;1.33;;
15356;SDS011;7778;48.792;9.260;2022-09-03T13:57:58;1.40;;;1.15;;
15356;SDS011;7778;48.792;9.260;2022-09-03T14:00:49;3.28;;;1.33;;
15356;SDS011;7778;48.792;9.260;2022-09-03T14:03:47;2.38;;;1.20;;
15356;SDS011;7778;48.792;9.260;2022-09-03T14:06:38;2.95;;;1.80;;
15356;SDS011;7778;48.792;9.260;2022-09-03T14:09:29;1.85;;;1.55;;
15356;SDS011;7778;48.792;9.260;2022-09-03T14:12:24;4.40;;;1.60;;
15356;SDS011;7778;48.792;9.260;2022-09-03T14:15:26;2.97;;;1.35;;
15356;SDS011;7778;48.792;9.260;2022-09-03T14:18:26;2.40;;;1.25;;
15356;SDS011;7778;48.792;9.260;2022-09-03T14:21:26;2.40;;;1.50;;
15356;SDS011;7778;48.792;9.260;2022-09-03T14:24:19;2.28;;;1.40;;
15356;SDS011;7778;48.792;9.260;2022-09-03T14:27:10;2.42;;;1.65;;
15356;SDS011;7778;48.792;9.260;2022-09-03T14:29:57;3.00;;;1.27;;
15356;SDS011;7778;48.792;9.260;2022-09-03T14:32:53;1.50;;;1.25;;
15356;SDS011;7778;48.792;9.260;2022-09-03T14:35:51;1.85;;;1.33;;
15356;SDS011;7778;48.792;9.260;2022-09-03T14:38:55;1.27;;;1.10;;
15356;SDS011;7778;48.792;9.260;2022-09-03T14:42:02;1.67;;;1.30;;
15356;SDS011;7778;48.792;9.260;2022-09-03T14:45:28;1.77;;;1.20;;
15356;SDS011;7778;48.792;9.260;2022-09-03T14:52:01;1.40;;;0.85;;
15356;SDS011;7778;48.792;9.260;2022-09-03T14:55:12;1.85;;;1.42;;
15356;SDS011;7778;48.792;9.260;2022-09-03T14:58:17;1.90;;;1.15;;
15356;SDS011;7778;48.792;9.260;2022-09-03T15:01:09;2.90;;;1.40;;
15356;SDS011;7778;48.792;9.260;2022-09-03T15:07:30;1.55;;;0.70;;
15356;SDS011;7778;48.792;9.260;2022-09-03T15:10:23;0.88;;;0.80;;
15356;SDS011;7778;48.792;9.260;2022-09-03T15:13:16;1.27;;;0.75;;
15356;SDS011;7778;48.792;9.260;2022-09-03T15:16:10;0.80;;;0.77;;
15356;SDS011;7778;48.792;9.260;2022-09-03T15:19:12;1.23;;;0.52;;
15356;SDS011;7778;48.792;9.260;2022-09-03T15:25:51;2.00;;;0.93;;
15356;SDS011;7778;48.792;9.260;2022-09-03T15:29:26;1.45;;;1.00;;
15356;SDS011;7778;48.792;9.260;2022-09-03T15:32:31;1.48;;;1.00;;
15356;SDS011;7778;48.792;9.260;2022-09-03T15:35:36;1.25;;;0.68;;
15356;SDS011;7778;48.792;9.260;2022-09-03T15:38:39;3.33;;;1.35;;
15356;SDS011;7778;48.792;9.260;2022-09-03T15:41:34;1.45;;;1.13;;
15356;SDS011;7778;48.792;9.260;2022-09-03T15:44:40;0.80;;;0.80;;
15356;SDS011;7778;48.792;9.260;2022-09-03T15:47:35;0.80;;;0.68;;
15356;SDS011;7778;48.792;9.260;2022-09-03T15:50:31;0.90;;;0.70;;
15356;SDS011;7778;48.792;9.260;2022-09-03T15:53:24;1.38;;;1.08;;
15356;SDS011;7778;48.792;9.260;2022-09-03T15:56:23;1.35;;;1.02;;
15356;SDS011;7778;48.792;9.260;2022-09-03T15:59:14;2.83;;;1.25;;
15356;SDS011;7778;48.792;9.260;2022-09-03T16:02:04;1.65;;;0.98;;
15356;SDS011;7778;48.792;9.260;2022-09-03T16:04:58;1.58;;;0.80;;
15356;SDS011;7778;48.792;9.260;2022-09-03T16:08:06;3.03;;;1.05;;
15356;SDS011;7778;48.792;9.260;2022-09-03T16:11:04;1.27;;;1.13;;
15356;SDS011;7778;48.792;9.260;2022-09-03T16:13:59;1.73;;;0.98;;
15356;SDS011;7778;48.792;9.260;2022-09-03T16:16:54;1.17;;;0.88;;
15356;SDS011;7778;48.792;9.260;2022-09-03T16:19:45;1.17;;;1.00;;
15356;SDS011;7778;48.792;9.260;2022-09-03T16:22:39;1.60;;;1.10;;
15356;SDS011;7778;48.792;9.260;2022-09-03T16:25:32;3.33;;;1.23;;
15356;SDS011;7778;48.792;9.260;2022-09-03T16:28:31;1.20;;;0.82;;
15356;SDS011;7778;48.792;9.260;2022-09-03T16:31:32;2.65;;;1.33;;
15356;SDS011;7778;48.792;9.260;2022-09-03T16:34:38;2.85;;;1.10;;
15356;SDS011;7778;48.792;9.260;2022-09-03T16:37:38;1.05;;;0.98;;
15356;SDS011;7778;48.792;9.260;2022-09-03T16:40:53;0.95;;;0.73;;
15356;SDS011;7778;48.792;9.260;2022-09-03T16:43:45;1.45;;;0.95;;
15356;SDS011;7778;48.792;9.260;2022-09-03T16:46:47;1.95;;;1.13;;
15356;SDS011;7778;48.792;9.260;2022-09-03T16:49:45;2.60;;;0.90;;
15356;SDS011;7778;48.792;9.260;2022-09-03T16:52:44;1.75;;;1.15;;
15356;SDS011;7778;48.792;9.260;2022-09-03T16:55:50;1.50;;;1.15;;
15356;SDS011;7778;48.792;9.260;2022-09-03T16:58:49;0.77;;;0.70;;
15356;SDS011;7778;48.792;9.260;2022-09-03T17:01:51;2.58;;;1.10;;
15356;SDS011;7778;48.792;9.260;2022-09-03T17:04:59;2.40;;;1.48;;
15356;SDS011;7778;48.792;9.260;2022-09-03T17:08:07;1.33;;;1.00;;
15356;SDS011;7778;48.792;9.260;2022-09-03T17:11:08;1.27;;;1.05;;
15356;SDS011;7778;48.792;9.260;2022-09-03T17:14:13;5.55;;;1.45;;
15356;SDS011;7778;48.792;9.260;2022-09-03T17:17:21;2.47;;;1.17;;
15356;SDS011;7778;48.792;9.260;2022-09-03T17:20:23;1.00;;;0.80;;
15356;SDS011;7778;48.792;9.260;2022-09-03T17:23:30;1.42;;;0.90;;
15356;SDS011;7778;48.792;9.260;2022-09-03T17:26:49;2.95;;;1.02;;
15356;SDS011;7778;48.792;9.260;2022-09-03T17:29:43;1.70;;;1.02;;
15356;SDS011;7778;48.792;9.260;2022-09-03T17:36:28;3.95;;;1.02;;
15356;SDS011;7778;48.792;9.260;2022-09-03T17:39:23;1.65;;;0.93;;
15356;SDS011;7778;48.792;9.260;2022-09-03T17:42:39;2.08;;;0.85;;
15356;SDS011;7778;48.792;9.260;2022-09-03T17:45:40;1.45;;;1.05;;
15356;SDS011;7778;48.792;9.260;2022-09-03T17:48:40;1.08;;;0.90;;
15356;SDS011;7778;48.792;9.260;2022-09-03T17:51:38;0.98;;;0.85;;
15356;SDS011;7778;48.792;9.260;2022-09-03T17:54:33;1.65;;;1.13;;
15356;SDS011;7778;48.792;9.260;2022-09-03T17:57:26;1.13;;;0.98;;